Time;durP1;ratioP1;P1;durP2;ratioP2;P2;SDS_P1;SDS_P2;PMS_P1;PMS_P2;Temp;Humidity;BMP_temperature;BMP_pressure;BME280_temperature;BME280_humidity;BME280_pressure;Samples;Min_cycle;Max_cycle;Signal;HPM_P1;HPM_P2
2023/12/27 00:00:48;;;;;;;0.70;0.70;;;18.60;60.90;;;;;;5093195;28;20201;-68
2023/12/27 00:03:14;;;;;;;1.08;0.90;;;18.60;60.90;;;;;;5082084;28;20698;-68
2023/12/27 00:05:40;;;;;;;0.90;0.90;;;18.60;60.90;;;;;;5099077;28;20193;-68
2023/12/27 00:08:06;;;;;;;1.25;0.90;;;18.60;60.90;;;;;;5076490;28;20191;-68
2023/12/27 00:10:31;;;;;;;0.75;0.70;;;18.60;60.90;;;;;;5099934;28;20200;-68
2023/12/27 00:12:57;;;;;;;1.10;1.00;;;18.50;60.70;;;;;;5103668;28;20224;-68
2023/12/27 00:15:23;;;;;;;1.30;0.93;;;18.60;60.90;;;;;;5109211;28;20199;-68
2023/12/27 00:17:49;;;;;;;0.68;0.63;;;18.50;60.80;;;;;;5093077;28;20644;-68
2023/12/27 00:20:14;;;;;;;1.13;1.02;;;18.60;60.90;;;;;;5076029;28;20667;-68
2023/12/27 00:22:40;;;;;;;0.93;0.93;;;18.50;60.70;;;;;;5074839;28;20624;-68
2023/12/27 00:25:07;;;;;;;1.00;0.90;;;18.60;61.00;;;;;;5098799;28;20294;-68
2023/12/27 00:27:32;;;;;;;1.40;1.00;;;18.60;61.70;;;;;;5076894;28;20189;-68
2023/12/27 00:29:58;;;;;;;0.90;0.90;;;18.60;60.90;;;;;;5096909;28;20196;-68
2023/12/27 00:32:24;;;;;;;0.85;0.85;;;18.60;60.90;;;;;;5081261;28;20212;-68
2023/12/27 00:34:49;;;;;;;2.65;1.08;;;18.50;60.80;;;;;;5095769;28;20185;-68
2023/12/27 00:37:16;;;;;;;1.10;1.00;;;18.60;60.90;;;;;;5098001;28;20185;-68
2023/12/27 00:39:44;;;;;;;1.42;1.00;;;18.60;61.00;;;;;;5089810;28;20271;-68
2023/12/27 00:42:10;;;;;;;1.02;0.80;;;18.60;61.00;;;;;;5095174;28;20205;-68
2023/12/27 00:44:36;;;;;;;0.90;0.90;;;18.50;60.90;;;;;;5109736;28;20212;-68
2023/12/27 00:47:01;;;;;;;1.88;1.13;;;18.60;60.90;;;;;;5081169;28;20177;-68
2023/12/27 00:49:27;;;;;;;1.30;1.00;;;18.50;60.80;;;;;;5079768;28;20207;-68
2023/12/27 00:51:54;;;;;;;0.63;0.63;;;18.50;60.80;;;;;;5092253;28;20207;-68
2023/12/27 00:54:20;;;;;;;0.98;0.80;;;18.50;60.80;;;;;;5097359;28;20184;-68
2023/12/27 00:56:47;;;;;;;1.00;0.90;;;18.60;60.90;;;;;;5096168;28;20203;-67
2023/12/27 00:59:13;;;;;;;0.80;0.80;;;18.50;60.80;;;;;;5086028;28;20184;-68
2023/12/27 01:01:39;;;;;;;0.90;0.90;;;18.60;60.90;;;;;;5091788;28;20211;-68
2023/12/27 01:04:04;;;;;;;0.90;0.90;;;18.50;60.80;;;;;;5075278;28;20246;-67
2023/12/27 01:06:30;;;;;;;0.80;0.80;;;18.50;60.80;;;;;;5086391;28;20181;-68
2023/12/27 01:08:56;;;;;;;1.10;1.00;;;18.50;60.80;;;;;;5080425;28;20188;-68
2023/12/27 01:11:22;;;;;;;1.00;0.90;;;18.60;61.00;;;;;;5091776;28;20203;-68
2023/12/27 01:13:47;;;;;;;0.88;0.88;;;18.50;60.80;;;;;;5081793;28;20204;-68
2023/12/27 01:16:15;;;;;;;0.80;0.80;;;18.60;61.00;;;;;;5075148;28;20189;-68
2023/12/27 01:18:41;;;;;;;0.90;0.90;;;18.60;60.90;;;;;;5098196;28;20275;-68
2023/12/27 01:21:06;;;;;;;0.95;0.68;;;18.50;60.80;;;;;;5099444;28;20292;-68
2023/12/27 01:23:32;;;;;;;0.85;0.70;;;18.60;61.00;;;;;;5091449;28;20205;-68
2023/12/27 01:25:58;;;;;;;0.90;0.90;;;18.50;60.80;;;;;;5078937;28;20293;-68
2023/12/27 01:28:25;;;;;;;1.55;0.70;;;18.60;60.90;;;;;;5092317;28;20215;-68
2023/12/27 01:30:51;;;;;;;0.80;0.80;;;18.50;60.80;;;;;;5091296;28;20200;-69
2023/12/27 01:33:16;;;;;;;1.10;1.00;;;18.60;61.00;;;;;;5091644;28;20212;-68
2023/12/27 01:35:42;;;;;;;2.13;1.48;;;18.60;60.90;;;;;;5074645;28;20265;-68
2023/12/27 01:38:08;;;;;;;1.52;1.30;;;18.60;60.90;;;;;;5094524;28;20321;-68
2023/12/27 01:40:34;;;;;;;1.17;0.90;;;18.60;61.00;;;;;;5091443;28;20209;-68
2023/12/27 01:42:59;;;;;;;1.25;1.15;;;18.60;61.00;;;;;;5078404;28;20212;-68
2023/12/27 01:45:25;;;;;;;1.00;0.90;;;18.60;61.00;;;;;;5100423;28;20191;-69
2023/12/27 01:47:51;;;;;;;0.77;0.77;;;18.60;61.00;;;;;;5098491;28;20189;-68
2023/12/27 01:50:18;;;;;;;1.00;1.00;;;18.60;60.90;;;;;;5079985;28;20259;-68
2023/12/27 01:52:44;;;;;;;1.20;1.10;;;18.60;60.90;;;;;;5096733;28;20262;-68
2023/12/27 01:55:11;;;;;;;1.30;1.20;;;18.50;60.80;;;;;;5103024;28;20188;-68
2023/12/27 01:57:40;;;;;;;1.02;0.93;;;18.60;60.90;;;;;;5099944;28;20215;-68
2023/12/27 02:00:09;;;;;;;1.00;0.90;;;18.60;61.00;;;;;;5073388;28;20206;-68
2023/12/27 02:02:41;;;;;;;1.30;1.20;;;18.60;61.00;;;;;;5092296;28;20315;-68
2023/12/27 02:05:08;;;;;;;1.08;0.90;;;18.50;60.90;;;;;;5104043;28;20202;-68
2023/12/27 02:07:36;;;;;;;1.13;0.90;;;18.50;60.90;;;;;;5092373;28;20204;-68
2023/12/27 02:10:03;;;;;;;1.00;0.98;;;18.50;60.80;;;;;;5074194;28;20184;-68
2023/12/27 02:12:31;;;;;;;2.25;0.93;;;18.50;60.80;;;;;;5066250;28;20217;-68
2023/12/27 02:14:57;;;;;;;1.15;1.00;;;18.50;60.80;;;;;;5099358;28;20615;-68
2023/12/27 02:17:27;;;;;;;1.63;0.80;;;18.60;61.00;;;;;;5108525;28;20648;-67
2023/12/27 02:19:54;;;;;;;1.20;0.80;;;18.50;60.90;;;;;;5089296;28;20230;-68
2023/12/27 02:22:23;;;;;;;0.90;0.90;;;18.50;60.80;;;;;;5099977;28;20212;-68
2023/12/27 02:24:51;;;;;;;1.67;1.10;;;18.50;60.80;;;;;;5103801;28;20215;-68
2023/12/27 02:27:17;;;;;;;1.23;1.00;;;18.60;61.00;;;;;;5090770;28;20191;-68
2023/12/27 02:29:43;;;;;;;2.03;0.93;;;18.60;61.00;;;;;;5096408;28;20260;-68
2023/12/27 02:32:08;;;;;;;1.10;1.00;;;18.50;60.80;;;;;;5098444;28;20209;-68
2023/12/27 02:34:35;;;;;;;1.00;0.90;;;18.50;60.80;;;;;;5077919;28;20196;-68
2023/12/27 02:37:00;;;;;;;0.80;0.70;;;18.50;60.80;;;;;;5107448;28;20196;-68
2023/12/27 02:39:26;;;;;;;0.82;0.70;;;18.50;60.80;;;;;;5102727;28;20189;-68
2023/12/27 02:41:52;;;;;;;1.02;0.80;;;18.50;60.80;;;;;;5097228;28;20209;-68
2023/12/27 02:44:18;;;;;;;1.38;0.90;;;18.50;60.80;;;;;;5077363;28;20276;-67
2023/12/27 02:46:44;;;;;;;0.60;0.60;;;18.60;60.90;;;;;;5073653;28;20181;-68
2023/12/27 02:49:10;;;;;;;1.20;1.02;;;18.50;60.70;;;;;;5094316;28;20275;-68
2023/12/27 02:51:35;;;;;;;1.20;0.90;;;18.50;60.80;;;;;;5098854;28;20263;-68
2023/12/27 02:54:01;;;;;;;1.02;0.80;;;18.60;60.90;;;;;;5082083;28;20204;-68
2023/12/27 02:56:27;;;;;;;1.40;1.08;;;18.50;60.70;;;;;;5094130;28;20200;-68
2023/12/27 02:58:53;;;;;;;1.17;1.08;;;18.50;60.70;;;;;;5093596;28;20180;-68
2023/12/27 03:01:18;;;;;;;1.63;0.98;;;18.50;60.80;;;;;;5073940;28;20217;-68
2023/12/27 03:03:44;;;;;;;0.95;0.82;;;18.50;60.80;;;;;;5092497;28;20235;-68
2023/12/27 03:06:10;;;;;;;1.42;0.88;;;18.50;60.70;;;;;;5090407;28;20188;-68
2023/12/27 03:08:37;;;;;;;0.82;0.65;;;18.50;60.70;;;;;;5103789;28;20247;-67
2023/12/27 03:11:06;;;;;;;1.02;0.93;;;18.50;60.70;;;;;;5075585;28;20185;-68
2023/12/27 03:13:33;;;;;;;0.93;0.70;;;18.50;60.80;;;;;;5089370;28;20219;-68
2023/12/27 03:16:03;;;;;;;1.00;0.90;;;18.50;60.80;;;;;;5095401;28;20189;-68
2023/12/27 03:18:29;;;;;;;0.82;0.82;;;18.50;60.70;;;;;;5068890;28;20251;-68
2023/12/27 03:20:55;;;;;;;1.05;1.00;;;18.50;60.70;;;;;;5092256;28;20213;-68
2023/12/27 03:23:20;;;;;;;1.05;1.00;;;18.50;60.70;;;;;;5076373;28;20739;-68
2023/12/27 03:25:46;;;;;;;0.95;0.90;;;18.50;60.80;;;;;;5090088;28;20189;-68
2023/12/27 03:28:14;;;;;;;1.10;1.00;;;18.50;60.70;;;;;;5080244;28;20184;-68
2023/12/27 03:30:40;;;;;;;1.27;1.02;;;18.50;60.70;;;;;;5097008;28;20201;-69
2023/12/27 03:33:05;;;;;;;1.00;1.00;;;18.50;60.70;;;;;;5085631;28;20273;-68
2023/12/27 03:35:31;;;;;;;0.70;0.70;;;18.50;60.70;;;;;;5082863;28;20188;-68
2023/12/27 03:37:57;;;;;;;1.63;1.00;;;18.50;60.70;;;;;;5085759;28;20272;-68
2023/12/27 03:40:22;;;;;;;1.38;1.10;;;18.50;60.70;;;;;;5114200;27;20196;-67
2023/12/27 03:42:48;;;;;;;1.20;0.98;;;18.50;60.70;;;;;;5080030;28;20204;-68
2023/12/27 03:45:14;;;;;;;0.77;0.77;;;18.50;60.70;;;;;;5102582;28;20187;-68
2023/12/27 03:47:40;;;;;;;1.05;0.90;;;18.50;60.70;;;;;;5076751;28;20181;-68
2023/12/27 03:50:06;;;;;;;1.15;0.80;;;18.50;60.70;;;;;;5104245;28;20211;-68
2023/12/27 03:52:32;;;;;;;1.33;0.70;;;18.50;60.70;;;;;;5098825;28;20205;-68
2023/12/27 03:54:58;;;;;;;0.82;0.82;;;18.50;60.70;;;;;;5081477;28;20187;-68
2023/12/27 03:57:23;;;;;;;1.00;0.90;;;18.50;61.50;;;;;;5077143;28;20225;-68
2023/12/27 03:59:49;;;;;;;0.73;0.73;;;18.50;60.70;;;;;;5094156;28;20188;-68
2023/12/27 04:02:15;;;;;;;1.17;1.08;;;18.50;60.70;;;;;;5088921;28;20208;-68
2023/12/27 04:04:41;;;;;;;0.90;0.90;;;18.50;60.70;;;;;;5084516;28;20184;-68
2023/12/27 04:07:07;;;;;;;1.35;1.00;;;18.50;60.70;;;;;;5110307;27;20181;-68
2023/12/27 04:09:33;;;;;;;1.00;0.90;;;18.50;60.70;;;;;;5098012;28;20235;-68
2023/12/27 04:11:59;;;;;;;0.80;0.80;;;18.50;60.70;;;;;;5080406;28;20276;-68
2023/12/27 04:14:25;;;;;;;1.10;1.00;;;18.50;60.70;;;;;;5105937;28;20181;-68
2023/12/27 04:16:51;;;;;;;0.98;0.85;;;18.50;60.70;;;;;;5076050;28;20268;-68
2023/12/27 04:19:17;;;;;;;1.27;0.88;;;18.50;60.70;;;;;;5080571;28;20187;-68
2023/12/27 04:21:43;;;;;;;0.90;0.75;;;18.50;60.70;;;;;;5092738;28;20231;-68
2023/12/27 04:24:09;;;;;;;0.90;0.90;;;18.50;60.70;;;;;;5091399;28;20185;-68
2023/12/27 04:26:39;;;;;;;1.10;1.00;;;18.50;60.70;;;;;;5095090;28;20178;-68
2023/12/27 04:29:07;;;;;;;1.20;1.08;;;18.50;60.60;;;;;;5096211;28;20197;-68
2023/12/27 04:31:33;;;;;;;0.60;0.60;;;18.50;60.60;;;;;;5094974;28;20196;-68
2023/12/27 04:34:00;;;;;;;1.17;0.90;;;18.50;60.60;;;;;;5094858;28;20187;-67
2023/12/27 04:36:25;;;;;;;1.08;0.90;;;18.50;60.60;;;;;;5097039;28;20263;-68
2023/12/27 04:38:51;;;;;;;0.80;0.80;;;18.50;60.60;;;;;;5078393;28;20186;-68
2023/12/27 04:41:17;;;;;;;1.50;1.00;;;18.50;60.60;;;;;;5094847;28;20221;-68
2023/12/27 04:43:43;;;;;;;0.90;0.88;;;18.50;60.70;;;;;;5076094;28;20205;-68
2023/12/27 04:46:10;;;;;;;1.00;1.00;;;18.50;60.60;;;;;;5113207;27;20205;-68
2023/12/27 04:48:36;;;;;;;0.85;0.80;;;18.50;60.60;;;;;;5092312;28;20271;-68
2023/12/27 04:51:01;;;;;;;1.00;0.85;;;18.50;60.50;;;;;;5109758;27;20265;-68
2023/12/27 04:53:27;;;;;;;0.93;0.73;;;18.50;60.60;;;;;;5077731;28;20208;-68
2023/12/27 04:55:53;;;;;;;1.10;1.00;;;18.50;60.60;;;;;;5077621;28;20221;-68
2023/12/27 04:58:19;;;;;;;0.80;0.80;;;18.50;60.60;;;;;;5077342;28;20181;-68
2023/12/27 05:00:45;;;;;;;0.95;0.95;;;18.50;60.50;;;;;;5100513;28;20205;-68
2023/12/27 05:03:11;;;;;;;1.70;1.10;;;18.40;60.40;;;;;;5100741;28;20679;-68
2023/12/27 05:05:37;;;;;;;1.10;0.98;;;18.40;60.40;;;;;;5095094;28;20181;-68
2023/12/27 05:08:03;;;;;;;1.13;1.00;;;18.50;60.60;;;;;;5095220;28;20716;-68
2023/12/27 05:10:28;;;;;;;1.20;1.10;;;18.50;60.50;;;;;;5095256;28;20901;-67
2023/12/27 05:12:54;;;;;;;1.52;0.88;;;18.40;60.40;;;;;;5073631;28;20208;-68
2023/12/27 05:15:20;;;;;;;1.05;0.98;;;18.40;60.50;;;;;;5075054;28;20193;-69
2023/12/27 05:17:46;;;;;;;1.13;0.93;;;18.40;60.40;;;;;;5076552;28;20181;-68
2023/12/27 05:20:13;;;;;;;1.10;1.00;;;18.50;60.70;;;;;;5076454;28;20230;-68
2023/12/27 05:22:40;;;;;;;1.40;1.30;;;18.40;60.40;;;;;;5076311;28;20230;-68
2023/12/27 05:25:09;;;;;;;1.20;1.00;;;18.40;60.40;;;;;;5082121;28;20219;-68
2023/12/27 05:27:34;;;;;;;1.00;0.90;;;18.50;60.40;;;;;;5105680;28;20244;-68
2023/12/27 05:30:02;;;;;;;1.20;1.10;;;18.40;60.30;;;;;;5088662;28;20268;-68
2023/12/27 05:32:28;;;;;;;1.13;0.82;;;18.40;60.30;;;;;;5076255;28;20205;-68
2023/12/27 05:34:54;;;;;;;1.33;1.10;;;18.40;60.30;;;;;;5106227;27;20198;-68
2023/12/27 05:37:20;;;;;;;1.15;1.00;;;18.40;60.40;;;;;;5093158;28;20189;-68
2023/12/27 05:39:47;;;;;;;1.13;1.05;;;18.40;60.30;;;;;;5090743;28;20247;-69
2023/12/27 05:42:13;;;;;;;2.03;1.50;;;18.40;60.30;;;;;;5075508;28;20278;-68
2023/12/27 05:44:40;;;;;;;1.73;1.42;;;18.40;60.40;;;;;;5093011;28;20188;-68
2023/12/27 05:47:06;;;;;;;1.10;0.98;;;18.40;60.30;;;;;;5091221;28;20209;-68
2023/12/27 05:49:31;;;;;;;1.42;1.25;;;18.40;60.30;;;;;;5088341;28;20220;-68
2023/12/27 05:51:57;;;;;;;1.25;1.00;;;18.40;60.20;;;;;;5072133;28;20204;-68
2023/12/27 05:54:25;;;;;;;1.23;1.13;;;18.40;60.30;;;;;;5096686;28;20184;-68
2023/12/27 05:56:51;;;;;;;1.27;1.10;;;18.40;60.30;;;;;;5097795;28;20213;-68
2023/12/27 05:59:17;;;;;;;1.50;1.38;;;18.40;60.30;;;;;;5090013;28;20285;-68
2023/12/27 06:01:53;;;;;;;1.02;0.93;;;18.40;60.20;;;;;;5092002;28;20227;-68
2023/12/27 06:04:19;;;;;;;1.52;1.20;;;18.40;60.20;;;;;;5091687;28;20729;-68
2023/12/27 06:06:46;;;;;;;1.33;1.23;;;18.40;60.30;;;;;;5091237;28;20326;-67
2023/12/27 06:09:12;;;;;;;1.40;1.10;;;18.40;60.20;;;;;;5107949;28;20188;-67
2023/12/27 06:11:37;;;;;;;1.40;1.30;;;18.40;60.10;;;;;;5088792;28;20181;-67
2023/12/27 06:14:04;;;;;;;2.05;1.10;;;18.40;60.20;;;;;;5069924;28;20271;-68
2023/12/27 06:16:29;;;;;;;2.05;1.50;;;18.40;60.20;;;;;;5083408;28;20189;-68
2023/12/27 06:18:57;;;;;;;1.67;1.42;;;18.40;60.10;;;;;;5088700;28;20215;-68
2023/12/27 06:21:23;;;;;;;1.10;0.95;;;18.40;60.10;;;;;;5084941;28;20226;-68
2023/12/27 06:23:49;;;;;;;1.55;1.20;;;18.40;60.10;;;;;;5091626;28;20193;-68
2023/12/27 06:26:14;;;;;;;1.45;1.27;;;18.40;60.10;;;;;;5090421;28;20180;-68
2023/12/27 06:28:43;;;;;;;1.52;1.30;;;18.40;60.80;;;;;;5092638;28;20177;-68
2023/12/27 06:31:09;;;;;;;1.27;1.17;;;18.40;60.10;;;;;;5090789;28;20220;-68
2023/12/27 06:33:35;;;;;;;1.73;1.20;;;18.40;60.10;;;;;;5073915;28;20247;-68
2023/12/27 06:36:00;;;;;;;1.30;1.20;;;18.40;60.10;;;;;;5090602;28;20648;-68
2023/12/27 06:38:26;;;;;;;1.42;1.30;;;18.40;60.20;;;;;;5082756;28;20192;-68
2023/12/27 06:40:52;;;;;;;1.10;1.00;;;18.40;60.20;;;;;;5086567;28;20246;-68
2023/12/27 06:43:19;;;;;;;1.88;1.20;;;18.40;60.10;;;;;;5090380;28;20213;-68
2023/12/27 06:45:45;;;;;;;1.35;1.25;;;18.40;60.10;;;;;;5089826;28;20195;-68
2023/12/27 06:48:10;;;;;;;1.40;0.98;;;18.30;60.10;;;;;;5114368;28;20186;-68
2023/12/27 06:50:37;;;;;;;1.67;1.20;;;18.40;60.20;;;;;;5099132;28;20216;-68
2023/12/27 06:53:03;;;;;;;1.52;1.00;;;18.40;60.00;;;;;;5115682;28;20256;-68
2023/12/27 06:55:29;;;;;;;1.33;1.23;;;18.40;60.10;;;;;;5073867;28;20189;-68
2023/12/27 06:57:55;;;;;;;1.60;1.33;;;18.40;60.00;;;;;;5074639;28;20201;-68
2023/12/27 07:00:21;;;;;;;1.30;1.00;;;18.40;60.10;;;;;;5106669;28;20284;-67
2023/12/27 07:02:47;;;;;;;1.20;1.10;;;18.40;60.10;;;;;;5090587;28;20196;-67
2023/12/27 07:05:13;;;;;;;1.40;1.30;;;18.40;60.00;;;;;;5107459;28;20196;-68
2023/12/27 07:07:39;;;;;;;1.02;0.93;;;18.40;60.10;;;;;;5090517;28;20181;-68
2023/12/27 07:10:06;;;;;;;0.90;0.90;;;18.40;60.10;;;;;;5073939;28;20196;-68
2023/12/27 07:12:32;;;;;;;1.15;1.05;;;18.40;60.10;;;;;;5090416;28;20259;-68
2023/12/27 07:14:58;;;;;;;1.20;1.10;;;18.30;59.90;;;;;;5090803;28;20189;-68
2023/12/27 07:17:24;;;;;;;1.67;1.00;;;18.40;60.00;;;;;;5089711;28;20181;-68
2023/12/27 07:19:50;;;;;;;1.08;1.00;;;18.40;60.00;;;;;;5070704;28;20650;-68
2023/12/27 07:22:17;;;;;;;0.90;0.90;;;18.30;59.90;;;;;;5092463;28;20220;-68
2023/12/27 07:24:43;;;;;;;1.73;1.10;;;18.40;60.00;;;;;;5098834;28;20177;-68
2023/12/27 07:27:09;;;;;;;2.25;1.20;;;18.40;60.00;;;;;;5084651;28;20193;-68
2023/12/27 07:29:38;;;;;;;1.20;1.10;;;18.40;60.10;;;;;;5089053;28;20173;-68
2023/12/27 07:32:05;;;;;;;1.83;1.42;;;18.30;60.70;;;;;;5090217;28;20212;-68
2023/12/27 07:34:33;;;;;;;1.38;1.25;;;18.40;60.00;;;;;;5094811;28;20200;-68
2023/12/27 07:36:59;;;;;;;1.77;1.13;;;18.40;60.00;;;;;;5086027;28;20185;-68
2023/12/27 07:39:25;;;;;;;1.70;1.05;;;18.40;60.10;;;;;;5089532;28;20393;-67
2023/12/27 07:41:51;;;;;;;1.40;1.27;;;18.30;60.00;;;;;;5084377;28;20280;-68
2023/12/27 07:44:17;;;;;;;1.20;1.02;;;18.40;60.00;;;;;;5090149;28;20196;-68
2023/12/27 07:46:46;;;;;;;1.30;1.20;;;18.40;60.00;;;;;;5106826;28;20184;-68
2023/12/27 07:49:12;;;;;;;1.23;1.13;;;18.40;60.00;;;;;;5089956;28;20189;-67
2023/12/27 07:51:38;;;;;;;1.38;1.00;;;18.40;60.00;;;;;;5090050;28;20181;-67
2023/12/27 07:54:03;;;;;;;1.40;1.10;;;18.40;60.00;;;;;;5089801;28;20197;-68
2023/12/27 07:56:29;;;;;;;3.08;1.10;;;18.40;60.00;;;;;;5106941;28;20200;-68
2023/12/27 07:58:55;;;;;;;1.13;1.00;;;18.30;59.90;;;;;;5076525;28;20191;-68
2023/12/27 08:01:21;;;;;;;1.30;1.20;;;18.30;59.90;;;;;;5095630;28;20224;-67
2023/12/27 08:03:47;;;;;;;1.55;1.23;;;18.40;60.00;;;;;;5082621;28;20196;-67
2023/12/27 08:06:13;;;;;;;1.02;1.02;;;18.40;60.00;;;;;;5077796;28;20193;-68
2023/12/27 08:08:39;;;;;;;1.20;1.02;;;18.30;59.90;;;;;;5091544;28;20234;-68
2023/12/27 08:11:05;;;;;;;1.50;1.20;;;18.40;59.90;;;;;;5084443;28;20185;-68
2023/12/27 08:13:37;;;;;;;0.98;0.93;;;18.30;59.80;;;;;;5105099;28;20624;-68
2023/12/27 08:16:03;;;;;;;1.45;1.20;;;18.30;59.80;;;;;;5080726;28;20193;-68
2023/12/27 08:18:28;;;;;;;1.52;1.08;;;18.40;59.90;;;;;;5109616;28;20193;-67
2023/12/27 08:20:54;;;;;;;1.52;1.38;;;18.30;59.80;;;;;;5100839;28;20709;-68
2023/12/27 08:23:20;;;;;;;2.03;1.42;;;18.40;60.00;;;;;;5103840;28;20207;-68
2023/12/27 08:25:47;;;;;;;1.63;1.00;;;18.40;60.00;;;;;;5101194;28;20188;-68
2023/12/27 08:28:14;;;;;;;2.78;1.00;;;18.40;60.00;;;;;;5103212;28;20252;-68
2023/12/27 08:30:44;;;;;;;1.40;1.30;;;18.30;59.90;;;;;;5108101;28;20216;-68
2023/12/27 08:33:09;;;;;;;1.20;1.10;;;18.40;59.90;;;;;;5109221;28;20216;-67
2023/12/27 08:35:36;;;;;;;1.30;1.10;;;18.30;59.80;;;;;;5076136;28;20177;-68
2023/12/27 08:38:05;;;;;;;1.15;1.05;;;18.40;59.90;;;;;;5088299;28;20188;-67
2023/12/27 08:40:31;;;;;;;1.70;1.27;;;18.30;59.80;;;;;;5093412;28;20181;-67
2023/12/27 08:42:57;;;;;;;1.35;1.10;;;18.40;59.90;;;;;;5107773;28;20207;-67
2023/12/27 08:45:23;;;;;;;1.65;1.30;;;18.40;60.00;;;;;;5092493;28;20188;-67
2023/12/27 08:47:49;;;;;;;1.13;1.02;;;18.40;59.90;;;;;;5083490;28;20238;-67
2023/12/27 08:50:15;;;;;;;1.30;1.20;;;18.40;59.90;;;;;;5093095;28;20185;-67
2023/12/27 08:52:41;;;;;;;1.38;1.27;;;18.40;59.80;;;;;;5104099;28;20237;-67
2023/12/27 08:55:10;;;;;;;1.30;1.20;;;18.40;59.90;;;;;;5087181;28;20188;-68
2023/12/27 08:57:37;;;;;;;2.13;1.40;;;18.40;59.80;;;;;;5076024;28;20193;-68
2023/12/27 09:00:10;;;;;;;1.30;1.20;;;18.40;59.80;;;;;;5100439;28;20177;-68
2023/12/27 09:02:37;;;;;;;1.65;1.20;;;18.40;59.80;;;;;;5105299;28;20241;-67
2023/12/27 09:05:05;;;;;;;1.45;1.27;;;18.40;59.80;;;;;;5129188;27;20184;-68
2023/12/27 09:07:31;;;;;;;1.65;1.52;;;18.40;59.80;;;;;;5125140;27;20181;-68
2023/12/27 09:09:58;;;;;;;2.28;1.60;;;18.40;59.90;;;;;;5091504;28;20531;-67
2023/12/27 09:12:24;;;;;;;1.60;1.35;;;18.40;59.80;;;;;;5101813;28;20219;-68
2023/12/27 09:14:50;;;;;;;1.77;1.48;;;18.40;59.80;;;;;;5105532;28;20185;-67
2023/12/27 09:17:16;;;;;;;1.60;1.33;;;18.40;59.80;;;;;;5100252;28;20188;-68
2023/12/27 09:19:43;;;;;;;1.88;1.63;;;18.40;59.90;;;;;;5096577;28;20184;-68
2023/12/27 09:22:09;;;;;;;2.17;1.48;;;18.40;59.80;;;;;;5077839;28;20213;-67
2023/12/27 09:24:35;;;;;;;2.22;1.30;;;18.40;59.80;;;;;;5095980;28;20267;-68
2023/12/27 09:27:01;;;;;;;1.20;1.10;;;18.40;59.90;;;;;;5112230;28;20180;-68
2023/12/27 09:29:27;;;;;;;2.03;1.50;;;18.40;59.90;;;;;;5099775;28;20185;-68
2023/12/27 09:31:53;;;;;;;1.48;1.38;;;18.40;59.90;;;;;;5106288;28;20200;-68
2023/12/27 09:34:19;;;;;;;2.50;1.55;;;18.40;59.90;;;;;;5075028;28;20552;-68
2023/12/27 09:36:44;;;;;;;2.17;1.17;;;18.40;59.80;;;;;;5095065;28;20192;-68
2023/12/27 09:39:12;;;;;;;1.40;1.30;;;18.40;59.90;;;;;;5075848;28;20189;-68
2023/12/27 09:41:38;;;;;;;2.05;1.20;;;18.40;59.90;;;;;;5093320;28;20196;-68
2023/12/27 09:44:07;;;;;;;1.77;1.23;;;18.40;59.90;;;;;;5119907;27;20615;-68
2023/12/27 09:46:35;;;;;;;2.95;1.48;;;18.40;59.90;;;;;;5090975;28;20268;-68
2023/12/27 09:49:01;;;;;;;1.48;1.38;;;18.40;59.90;;;;;;5091376;28;20185;-68
2023/12/27 09:51:30;;;;;;;2.05;1.20;;;18.40;59.80;;;;;;5084179;28;20278;-68
2023/12/27 09:53:56;;;;;;;2.45;1.48;;;18.40;59.80;;;;;;5102676;28;20180;-68
2023/12/27 09:56:22;;;;;;;2.88;1.40;;;18.40;59.80;;;;;;5109439;28;20237;-68
2023/12/27 09:59:00;;;;;;;1.55;1.30;;;18.40;59.80;;;;;;5105794;28;20280;-68
2023/12/27 10:01:29;;;;;;;1.33;1.23;;;18.40;59.80;;;;;;5100592;28;20200;-68
2023/12/27 10:04:25;;;;;;;2.30;1.52;;;18.40;59.90;;;;;;5079482;28;20264;-67
2023/12/27 10:06:53;;;;;;;1.35;1.25;;;18.40;59.90;;;;;;5091515;28;20207;-67
2023/12/27 10:09:19;;;;;;;1.50;1.30;;;18.40;59.90;;;;;;5118249;27;20214;-67
2023/12/27 10:11:45;;;;;;;2.45;1.50;;;18.40;59.80;;;;;;5097296;28;20212;-68
2023/12/27 10:14:13;;;;;;;2.28;1.77;;;18.40;59.90;;;;;;5098405;28;20192;-68
2023/12/27 10:16:39;;;;;;;2.38;1.80;;;18.40;59.80;;;;;;5097896;28;20204;-68
2023/12/27 10:19:05;;;;;;;1.40;1.30;;;18.40;59.90;;;;;;5105984;28;20681;-67
2023/12/27 10:21:42;;;;;;;2.13;1.50;;;18.40;59.90;;;;;;5104853;28;20213;-67
2023/12/27 10:24:09;;;;;;;2.05;1.80;;;18.40;59.90;;;;;;5099000;28;20183;-68
2023/12/27 10:26:36;;;;;;;2.03;1.55;;;18.40;59.80;;;;;;5107488;28;20242;-68
2023/12/27 10:29:03;;;;;;;1.63;1.38;;;18.40;59.80;;;;;;5073722;28;20632;-68
2023/12/27 10:31:29;;;;;;;1.88;1.60;;;18.50;59.90;;;;;;5098325;28;20220;-67
2023/12/27 10:33:57;;;;;;;1.95;1.60;;;18.50;59.90;;;;;;5098411;28;20217;-68
2023/12/27 10:36:24;;;;;;;1.90;1.70;;;18.50;59.90;;;;;;5082955;28;20226;-69
2023/12/27 10:38:50;;;;;;;1.63;1.48;;;18.50;59.90;;;;;;5097352;28;20193;-68
2023/12/27 10:41:16;;;;;;;1.88;1.50;;;18.50;59.90;;;;;;5098813;28;20222;-68
2023/12/27 10:43:42;;;;;;;2.88;1.80;;;18.50;59.90;;;;;;5092305;28;20196;-68
2023/12/27 10:46:11;;;;;;;2.05;1.73;;;18.40;59.80;;;;;;5108423;28;20244;-69
2023/12/27 10:48:40;;;;;;;2.78;1.90;;;18.40;59.80;;;;;;5084426;28;20173;-69
2023/12/27 10:51:07;;;;;;;1.77;1.50;;;18.50;59.80;;;;;;5101111;28;20187;-68
2023/12/27 10:53:37;;;;;;;3.40;1.60;;;18.50;59.80;;;;;;5100398;28;20294;-68
2023/12/27 10:56:04;;;;;;;1.90;1.55;;;18.50;59.90;;;;;;5097788;28;20212;-68
2023/12/27 10:58:33;;;;;;;1.65;1.55;;;18.40;59.70;;;;;;5106799;28;20197;-68
2023/12/27 11:01:00;;;;;;;3.30;1.83;;;18.40;59.70;;;;;;5118823;28;20243;-68
2023/12/27 11:03:29;;;;;;;1.63;1.52;;;18.40;59.80;;;;;;5096201;28;20204;-68
2023/12/27 11:05:57;;;;;;;2.35;1.42;;;18.40;59.70;;;;;;5096465;28;20168;-68
2023/12/27 11:08:25;;;;;;;1.75;1.60;;;18.50;59.80;;;;;;5091422;28;20185;-68
2023/12/27 11:10:52;;;;;;;2.10;1.83;;;18.50;59.80;;;;;;5097480;28;20185;-69
2023/12/27 11:13:25;;;;;;;2.10;1.70;;;18.40;59.70;;;;;;5074069;28;20209;-69
2023/12/27 11:15:53;;;;;;;3.38;1.60;;;18.50;59.80;;;;;;5103047;28;20185;-68
2023/12/27 11:18:22;;;;;;;3.47;1.75;;;18.50;60.50;;;;;;5105070;28;20216;-68
2023/12/27 11:20:50;;;;;;;2.47;1.80;;;18.50;59.80;;;;;;5086171;28;20174;-68
2023/12/27 11:23:17;;;;;;;2.15;1.60;;;18.50;59.70;;;;;;5104488;28;20207;-68
2023/12/27 11:25:43;;;;;;;1.92;1.73;;;18.50;59.70;;;;;;5094695;28;20293;-68
2023/12/27 11:28:09;;;;;;;2.50;1.70;;;18.50;59.70;;;;;;5100355;28;20181;-69
2023/12/27 11:30:36;;;;;;;2.85;2.00;;;18.50;59.80;;;;;;5104631;28;20703;-68
2023/12/27 11:33:02;;;;;;;3.00;1.92;;;18.50;59.70;;;;;;5099041;28;20290;-68
2023/12/27 11:35:30;;;;;;;2.15;1.52;;;18.50;59.70;;;;;;5084612;28;20220;-69
2023/12/27 11:38:20;;;;;;;1.55;1.45;;;18.50;59.80;;;;;;5106944;28;20180;-68
2023/12/27 11:40:57;;;;;;;2.45;1.80;;;18.50;59.80;;;;;;5110389;28;20196;-68
2023/12/27 11:43:26;;;;;;;3.17;1.60;;;18.50;60.00;;;;;;5093549;28;20228;-68
2023/12/27 11:45:58;;;;;;;3.20;1.92;;;18.60;59.90;;;;;;5102062;28;20212;-68
2023/12/27 11:48:35;;;;;;;2.13;1.70;;;18.50;59.80;;;;;;5093587;28;20188;-68
2023/12/27 11:51:02;;;;;;;3.10;1.60;;;18.50;59.80;;;;;;5107268;28;20175;-68
2023/12/27 11:53:29;;;;;;;3.25;1.70;;;18.60;59.90;;;;;;5095548;28;20315;-68
2023/12/27 11:56:02;;;;;;;1.30;1.20;;;18.50;59.70;;;;;;5089941;28;20195;-68
2023/12/27 11:58:35;;;;;;;1.77;1.50;;;18.50;59.80;;;;;;5102013;28;20236;-68
2023/12/27 12:01:21;;;;;;;3.30;1.50;;;18.50;59.70;;;;;;5090125;28;20204;-68
2023/12/27 12:04:15;;;;;;;2.35;1.50;;;18.60;59.80;;;;;;5106780;28;20181;-68
2023/12/27 12:06:56;;;;;;;2.15;1.63;;;18.60;59.80;;;;;;5079769;28;20249;-68
2023/12/27 12:09:41;;;;;;;1.63;1.45;;;18.60;59.80;;;;;;5109249;28;20191;-68
2023/12/27 12:12:25;;;;;;;2.63;1.75;;;18.50;59.70;;;;;;5110398;28;20234;-69
2023/12/27 12:14:54;;;;;;;1.98;1.40;;;18.60;59.70;;;;;;5071171;28;20196;-68
2023/12/27 12:17:21;;;;;;;2.22;1.40;;;18.60;59.70;;;;;;5107257;28;20206;-68
2023/12/27 12:19:49;;;;;;;2.20;1.58;;;18.50;59.60;;;;;;5100084;28;20189;-68
2023/12/27 12:22:16;;;;;;;1.90;1.60;;;18.50;59.70;;;;;;5092812;28;20216;-68
2023/12/27 12:24:44;;;;;;;1.92;1.60;;;18.60;59.60;;;;;;5079947;28;20172;-68
2023/12/27 12:27:21;;;;;;;1.77;1.20;;;18.50;59.60;;;;;;5096113;28;20197;-68
2023/12/27 12:29:47;;;;;;;2.05;1.65;;;18.60;59.70;;;;;;5092816;28;20206;-68
2023/12/27 12:32:15;;;;;;;3.85;1.70;;;18.60;59.60;;;;;;5089269;28;20208;-68
2023/12/27 12:34:41;;;;;;;1.70;1.60;;;18.60;59.90;;;;;;5085986;28;20200;-68
2023/12/27 12:37:07;;;;;;;2.35;1.60;;;18.60;59.90;;;;;;5075982;28;20189;-69
2023/12/27 12:39:33;;;;;;;1.90;1.50;;;18.60;59.80;;;;;;5082884;28;20574;-69
2023/12/27 12:41:59;;;;;;;2.88;1.60;;;18.60;59.90;;;;;;5086263;28;20217;-69
2023/12/27 12:44:25;;;;;;;3.58;1.50;;;18.60;59.80;;;;;;5083045;28;20181;-69
2023/12/27 12:46:51;;;;;;;2.38;1.60;;;18.60;59.80;;;;;;5080261;28;20180;-69